createdAt,value
2018-02-21T00:01:37.418Z,30.93
2018-02-21T00:04:04.998Z,31.00
2018-02-21T00:06:32.524Z,29.63
2018-02-21T00:09:00.197Z,30.87
2018-02-21T00:11:27.757Z,29.67
2018-02-21T00:13:55.318Z,30.60
2018-02-21T00:16:23.625Z,30.73
2018-02-21T00:18:51.974Z,31.03
2018-02-21T00:21:19.555Z,30.80
2018-02-21T00:23:47.130Z,31.27
2018-02-21T00:26:14.733Z,32.20
2018-02-21T00:28:43.058Z,32.57
2018-02-21T00:31:10.801Z,32.33
2018-02-21T00:33:38.423Z,30.20
2018-02-21T00:36:06.241Z,31.00
2018-02-21T00:38:34.628Z,30.27
2018-02-21T00:41:02.229Z,31.47
2018-02-21T00:43:29.885Z,29.83
2018-02-21T00:45:58.217Z,30.27
2018-02-21T00:48:25.724Z,30.40
2018-02-21T00:50:53.328Z,31.03
2018-02-21T00:53:20.878Z,31.27
2018-02-21T00:55:49.289Z,29.90
2018-02-21T00:58:16.837Z,31.03
2018-02-21T01:00:44.391Z,32.27
2018-02-21T01:03:12.209Z,30.17
2018-02-21T01:05:39.810Z,30.03
2018-02-21T01:08:07.362Z,29.43
2018-02-21T01:10:35.024Z,31.73
2018-02-21T01:13:02.621Z,28.73
2018-02-21T01:15:30.174Z,31.60
2018-02-21T01:17:58.488Z,30.87
2018-02-21T01:20:26.212Z,32.07
2018-02-21T01:22:53.737Z,28.77
2018-02-21T01:25:21.295Z,30.57
2018-02-21T01:27:48.868Z,29.73
2018-02-21T01:30:16.391Z,31.43
2018-02-21T01:32:44.022Z,33.70
2018-02-21T01:35:11.575Z,33.50
2018-02-21T01:37:39.168Z,35.10
2018-02-21T01:40:06.735Z,34.00
2018-02-21T01:42:34.295Z,31.10
2018-02-21T01:45:01.838Z,31.63
2018-02-21T01:47:29.391Z,33.17
2018-02-21T01:49:56.981Z,36.17
2018-02-21T01:52:24.545Z,32.07
2018-02-21T01:54:52.861Z,31.67
2018-02-21T01:57:21.189Z,31.90
2018-02-21T01:59:48.771Z,31.80
2018-02-21T02:02:16.360Z,31.40
2018-02-21T02:04:43.888Z,34.10
2018-02-21T02:07:11.429Z,32.10
2018-02-21T02:09:39.841Z,31.80
2018-02-21T02:12:07.399Z,33.17
2018-02-21T02:14:35.695Z,32.23
2018-02-21T02:17:04.017Z,30.47
2018-02-21T02:19:31.542Z,34.37
2018-02-21T02:21:59.845Z,31.93
2018-02-21T02:24:34.062Z,31.13
2018-02-21T02:27:02.423Z,34.97
2018-02-21T02:29:29.958Z,32.70
2018-02-21T02:31:57.534Z,33.17
2018-02-21T02:34:25.087Z,34.90
2018-02-21T02:36:52.684Z,32.53
2018-02-21T02:39:32.245Z,32.10
2018-02-21T02:41:59.792Z,31.47
2018-02-21T02:44:27.373Z,32.20
2018-02-21T02:46:55.003Z,33.03
2018-02-21T02:49:22.566Z,31.17
2018-02-21T02:51:50.138Z,31.77
2018-02-21T02:54:19.208Z,32.63
2018-02-21T02:56:46.789Z,30.13
2018-02-21T02:59:14.344Z,31.03
2018-02-21T03:01:41.923Z,32.03
2018-02-21T03:04:09.465Z,31.10
2018-02-21T03:06:37.053Z,31.83
2018-02-21T03:09:04.579Z,33.90
2018-02-21T03:11:32.181Z,31.83
2018-02-21T03:14:00.498Z,32.93
2018-02-21T03:16:28.069Z,33.50
2018-02-21T03:18:55.597Z,32.17
2018-02-21T03:21:23.196Z,35.57
2018-02-21T03:23:50.752Z,33.37
2018-02-21T03:26:19.114Z,33.00
2018-02-21T03:28:47.022Z,36.30
2018-02-21T03:31:15.341Z,34.70
2018-02-21T03:33:42.910Z,34.63
2018-02-21T03:36:10.473Z,33.27
2018-02-21T03:38:38.244Z,34.57
2018-02-21T03:41:06.541Z,35.30
2018-02-21T03:43:34.098Z,35.20
2018-02-21T03:46:02.398Z,35.20
2018-02-21T03:48:30.724Z,34.67
2018-02-21T03:50:58.400Z,35.03
2018-02-21T03:53:25.951Z,33.83
2018-02-21T03:55:53.517Z,35.90
2018-02-21T03:58:21.085Z,35.77
2018-02-21T04:00:48.675Z,35.53
2018-02-21T04:03:16.271Z,36.97
2018-02-21T04:05:44.064Z,37.17
2018-02-21T04:08:11.608Z,39.27
2018-02-21T04:10:39.124Z,35.20
2018-02-21T04:13:07.450Z,35.93
2018-02-21T04:15:34.978Z,36.93
2018-02-21T04:18:02.510Z,36.50
2018-02-21T04:20:30.054Z,37.37
2018-02-21T04:22:57.602Z,37.63
2018-02-21T04:25:25.904Z,36.70
2018-02-21T04:27:54.220Z,37.13
2018-02-21T04:30:21.776Z,36.47
2018-02-21T04:32:49.297Z,39.50
2018-02-21T04:35:16.901Z,40.40
2018-02-21T04:37:44.490Z,37.87
2018-02-21T04:40:12.262Z,42.33
2018-02-21T04:42:40.667Z,40.00
2018-02-21T04:45:08.263Z,38.53
2018-02-21T04:47:35.832Z,41.87
2018-02-21T04:50:03.397Z,41.40
2018-02-21T04:52:30.963Z,40.77
2018-02-21T04:58:13.814Z,39.77
2018-02-21T05:00:41.309Z,40.37
2018-02-21T05:03:08.792Z,38.67
2018-02-21T05:05:36.271Z,38.13
2018-02-21T05:08:03.744Z,38.67
2018-02-21T05:10:31.219Z,37.73
2018-02-21T05:12:58.696Z,35.80
2018-02-21T05:15:26.175Z,37.47
2018-02-21T05:17:53.651Z,34.13
2018-02-21T05:20:21.115Z,33.73
2018-02-21T05:22:48.600Z,32.33
2018-02-21T05:25:16.088Z,33.93
2018-02-21T05:27:44.327Z,32.73
2018-02-21T05:30:11.796Z,31.57
2018-02-21T05:32:39.275Z,31.20
2018-02-21T05:35:06.748Z,32.80
2018-02-21T05:37:34.233Z,29.20
2018-02-21T05:40:01.707Z,31.67
2018-02-21T05:42:29.948Z,31.03
2018-02-21T05:44:57.437Z,32.03
2018-02-21T05:47:24.919Z,32.57
2018-02-21T05:49:52.390Z,30.27
2018-02-21T05:52:19.880Z,32.73
2018-02-21T05:54:47.362Z,31.27
2018-02-21T05:57:15.613Z,29.30
2018-02-21T05:59:43.101Z,31.00
2018-02-21T06:02:10.568Z,32.03
2018-02-21T06:04:38.043Z,34.30
2018-02-21T06:07:05.506Z,35.03
2018-02-21T06:09:32.984Z,35.43
2018-02-21T06:12:00.455Z,35.67
2018-02-21T06:14:27.925Z,34.33
2018-02-21T06:16:55.390Z,34.90
2018-02-21T06:19:22.881Z,36.80
2018-02-21T06:21:51.112Z,35.77
2018-02-21T06:24:18.603Z,38.77
2018-02-21T06:26:46.080Z,37.23
2018-02-21T06:29:13.559Z,38.23
2018-02-21T06:31:41.034Z,36.83
2018-02-21T06:34:08.507Z,40.43
2018-02-21T06:36:36.755Z,41.23
2018-02-21T06:39:04.241Z,39.07
2018-02-21T06:41:31.711Z,39.87
2018-02-21T06:43:59.195Z,42.87
2018-02-21T06:46:26.672Z,44.20
2018-02-21T06:48:54.155Z,43.37
2018-02-21T06:51:22.526Z,46.20
2018-02-21T06:53:50.128Z,45.37
2018-02-21T06:56:17.682Z,47.27
2018-02-21T06:58:45.309Z,45.33
2018-02-21T07:01:12.883Z,44.73
2018-02-21T07:03:40.423Z,47.67
2018-02-21T07:06:07.969Z,47.53
2018-02-21T07:08:35.556Z,48.57
2018-02-21T07:11:03.129Z,44.97
2018-02-21T07:13:30.668Z,46.33
2018-02-21T07:15:58.217Z,46.03
2018-02-21T07:18:25.822Z,46.30
2018-02-21T07:20:53.351Z,47.73
2018-02-21T07:23:20.924Z,47.53
2018-02-21T07:25:48.496Z,44.13
2018-02-21T07:28:16.175Z,48.33
2018-02-21T07:30:44.053Z,45.93
2018-02-21T07:33:11.585Z,47.30
2018-02-21T07:35:39.199Z,47.97
2018-02-21T07:38:06.881Z,47.03
2018-02-21T07:40:34.364Z,48.13
2018-02-21T07:43:02.009Z,47.10
2018-02-21T07:45:29.660Z,42.90
2018-02-21T07:47:57.227Z,44.57
2018-02-21T07:50:31.485Z,43.73
2018-02-21T07:52:58.997Z,41.93
2018-02-21T07:55:26.624Z,43.60
2018-02-21T07:57:54.181Z,43.20
2018-02-21T08:00:21.771Z,42.90
2018-02-21T08:02:49.354Z,42.37
2018-02-21T08:05:16.937Z,41.53
2018-02-21T08:07:44.571Z,42.07
2018-02-21T08:10:12.239Z,41.40
2018-02-21T08:12:39.773Z,41.37
2018-02-21T08:15:07.412Z,42.73
2018-02-21T08:17:35.012Z,45.03
2018-02-21T08:20:02.545Z,44.30
2018-02-21T08:22:30.079Z,42.80
2018-02-21T08:24:58.380Z,43.20
2018-02-21T08:27:26.168Z,44.03
2018-02-21T08:29:53.808Z,41.90
2018-02-21T08:32:21.416Z,43.10
2018-02-21T08:34:49.817Z,44.23
2018-02-21T08:37:17.346Z,42.13
2018-02-21T08:39:44.916Z,42.03
2018-02-21T08:42:12.418Z,44.00
2018-02-21T08:44:40.738Z,42.90
2018-02-21T08:47:08.255Z,41.07
2018-02-21T08:49:35.802Z,42.37
2018-02-21T08:52:03.378Z,42.60
2018-02-21T08:54:30.918Z,42.10
2018-02-21T08:56:58.581Z,42.10
2018-02-21T08:59:26.136Z,42.43
2018-02-21T09:01:54.462Z,41.43
2018-02-21T09:04:22.034Z,42.37
2018-02-21T09:06:49.623Z,42.37
2018-02-21T09:09:17.224Z,44.33
2018-02-21T09:11:45.550Z,42.37
2018-02-21T09:14:13.124Z,44.27
2018-02-21T09:16:40.687Z,43.80
2018-02-21T09:19:08.220Z,42.77
2018-02-21T09:21:35.823Z,42.70
2018-02-21T09:24:03.360Z,40.60
2018-02-21T09:26:31.728Z,41.37
2018-02-21T09:28:59.251Z,42.03
2018-02-21T09:31:27.550Z,42.43
2018-02-21T09:33:55.090Z,38.97
2018-02-21T09:36:22.719Z,43.43
2018-02-21T09:38:50.272Z,43.77
2018-02-21T09:41:17.791Z,43.00
2018-02-21T09:43:45.362Z,38.97
2018-02-21T09:46:12.910Z,41.57
2018-02-21T09:48:40.411Z,43.00
2018-02-21T09:51:08.035Z,41.10
2018-02-21T09:53:35.572Z,41.93
2018-02-21T09:56:03.105Z,41.53
2018-02-21T09:58:30.657Z,42.03
2018-02-21T10:00:58.461Z,39.37
2018-02-21T10:03:26.002Z,40.70
2018-02-21T10:05:53.870Z,42.30
2018-02-21T10:08:21.490Z,41.10
2018-02-21T10:10:49.037Z,41.77
2018-02-21T10:13:16.593Z,40.20
2018-02-21T10:15:44.168Z,40.97
2018-02-21T10:18:11.731Z,41.87
2018-02-21T10:20:39.280Z,41.60
2018-02-21T10:23:07.622Z,42.30
2018-02-21T10:25:35.227Z,38.70
2018-02-21T10:28:02.844Z,40.77
2018-02-21T10:30:30.478Z,63.27
2018-02-21T10:32:58.051Z,41.60
2018-02-21T10:35:25.605Z,38.93
2018-02-21T10:37:53.202Z,39.47
2018-02-21T10:40:20.833Z,39.80
2018-02-21T10:42:48.397Z,42.93
2018-02-21T10:45:15.986Z,41.57
2018-02-21T10:47:43.618Z,43.03
2018-02-21T10:50:11.951Z,42.63
2018-02-21T10:52:39.510Z,40.87
2018-02-21T10:55:07.091Z,40.83
2018-02-21T10:57:34.704Z,39.40
2018-02-21T11:00:03.008Z,41.50
2018-02-21T11:02:31.276Z,42.10
2018-02-21T11:04:58.917Z,42.30
2018-02-21T11:07:26.519Z,39.30
2018-02-21T11:09:54.062Z,42.13
2018-02-21T11:12:21.640Z,42.40
2018-02-21T11:14:49.167Z,39.53
2018-02-21T11:17:17.492Z,43.17
2018-02-21T11:19:45.052Z,40.57
2018-02-21T11:22:12.607Z,40.37
2018-02-21T11:24:40.199Z,40.13
2018-02-21T11:27:07.796Z,40.07
2018-02-21T11:29:35.412Z,39.33
2018-02-21T11:32:03.769Z,41.20
2018-02-21T11:34:31.385Z,41.00
2018-02-21T11:36:59.671Z,42.53
2018-02-21T11:39:27.199Z,42.63
2018-02-21T11:41:54.753Z,44.27
2018-02-21T11:44:22.292Z,41.50
2018-02-21T11:46:49.859Z,38.93
2018-02-21T11:49:18.384Z,41.50
2018-02-21T11:51:45.909Z,39.20
2018-02-21T11:54:13.637Z,40.97
2018-02-21T11:56:41.202Z,39.70
2018-02-21T11:59:08.851Z,43.10
2018-02-21T12:01:37.141Z,39.30
2018-02-21T12:04:04.691Z,40.90
2018-02-21T12:06:33.008Z,43.00
2018-02-21T12:09:00.655Z,42.40
2018-02-21T12:11:28.977Z,41.60
2018-02-21T12:13:56.616Z,42.33
2018-02-21T12:16:24.176Z,40.87
2018-02-21T12:18:51.714Z,41.03
2018-02-21T12:21:19.254Z,40.27
2018-02-21T12:23:46.904Z,41.20
2018-02-21T12:26:15.205Z,43.27
2018-02-21T12:28:43.584Z,38.00
2018-02-21T12:31:11.170Z,38.67
2018-02-21T12:33:39.494Z,38.70
2018-02-21T12:36:07.043Z,37.63
2018-02-21T12:38:35.362Z,39.80
2018-02-21T12:41:08.518Z,38.53
2018-02-21T12:43:36.851Z,38.37
2018-02-21T12:46:04.759Z,40.43
2018-02-21T12:48:32.276Z,40.93
2018-02-21T12:51:00.597Z,42.30
2018-02-21T12:53:28.301Z,38.83
2018-02-21T12:55:55.852Z,39.57
2018-02-21T12:58:23.436Z,39.60
2018-02-21T13:00:51.035Z,40.97
2018-02-21T13:03:18.565Z,39.60
2018-02-21T13:05:46.117Z,40.33
2018-02-21T13:08:13.669Z,37.70
2018-02-21T13:10:41.240Z,37.80
2018-02-21T13:13:09.548Z,36.73
2018-02-21T13:15:37.164Z,37.10
2018-02-21T13:18:04.827Z,37.90
2018-02-21T13:20:32.373Z,41.60
2018-02-21T13:23:00.026Z,37.57
2018-02-21T13:25:28.398Z,37.70
2018-02-21T13:27:56.731Z,37.87
2018-02-21T13:30:24.375Z,36.43
2018-02-21T13:32:51.938Z,36.00
2018-02-21T13:35:19.487Z,37.77
2018-02-21T13:37:47.099Z,37.93
2018-02-21T13:40:14.592Z,36.10
2018-02-21T13:42:42.172Z,36.57
2018-02-21T13:45:09.777Z,35.00
2018-02-21T13:47:37.455Z,34.57
2018-02-21T13:50:04.999Z,33.57
2018-02-21T13:52:32.596Z,33.90
2018-02-21T13:55:00.190Z,35.20
2018-02-21T13:57:27.733Z,36.73
2018-02-21T13:59:55.254Z,35.23
2018-02-21T14:02:22.888Z,33.90
2018-02-21T14:04:50.508Z,34.83
2018-02-21T14:07:18.054Z,34.43
2018-02-21T14:09:46.512Z,34.40
2018-02-21T14:12:14.123Z,32.07
2018-02-21T14:14:41.970Z,34.03
2018-02-21T14:17:09.538Z,32.07
2018-02-21T14:19:37.076Z,32.40
2018-02-21T14:22:04.713Z,31.43
2018-02-21T14:24:33.044Z,31.50
2018-02-21T14:27:00.566Z,33.17
2018-02-21T14:29:28.173Z,33.40
2018-02-21T14:31:55.808Z,32.03
2018-02-21T14:34:23.356Z,33.90
2018-02-21T14:36:50.960Z,33.37
2018-02-21T14:39:18.556Z,32.13
2018-02-21T14:41:46.144Z,30.80
2018-02-21T14:44:13.747Z,32.27
2018-02-21T14:46:41.352Z,31.13
2018-02-21T14:49:08.911Z,33.43
2018-02-21T14:51:36.475Z,32.03
2018-02-21T14:54:04.852Z,31.00
2018-02-21T14:56:32.443Z,30.60
2018-02-21T14:59:00.869Z,30.93
2018-02-21T15:01:29.276Z,30.47
2018-02-21T15:03:56.887Z,31.50
2018-02-21T15:06:24.492Z,29.33
2018-02-21T15:08:52.817Z,32.30
2018-02-21T15:11:20.367Z,32.10
2018-02-21T15:13:47.971Z,30.63
2018-02-21T15:16:21.220Z,31.10
2018-02-21T15:18:48.816Z,30.30
2018-02-21T15:21:16.480Z,28.30
2018-02-21T15:23:44.028Z,27.20
2018-02-21T15:26:11.754Z,29.60
2018-02-21T15:28:39.320Z,29.00
2018-02-21T15:31:07.614Z,29.13
2018-02-21T15:33:35.199Z,27.37
2018-02-21T15:36:02.800Z,28.17
2018-02-21T15:38:30.399Z,28.57
2018-02-21T15:40:58.001Z,27.43
2018-02-21T15:43:26.314Z,29.90
2018-02-21T15:45:53.883Z,27.83
2018-02-21T15:48:21.459Z,29.57
2018-02-21T15:50:49.050Z,27.37
2018-02-21T15:53:16.592Z,28.87
2018-02-21T15:55:44.136Z,29.47
2018-02-21T15:58:11.747Z,29.00
2018-02-21T16:00:39.319Z,29.87
2018-02-21T16:03:06.844Z,30.63
2018-02-21T16:05:34.552Z,26.87
2018-02-21T16:08:02.891Z,28.27
2018-02-21T16:10:30.506Z,28.03
2018-02-21T16:12:58.803Z,29.93
2018-02-21T16:15:27.124Z,29.80
2018-02-21T16:17:54.758Z,28.70
2018-02-21T16:20:22.353Z,28.10
2018-02-21T16:22:49.908Z,29.33
2018-02-21T16:25:17.444Z,28.27
2018-02-21T16:27:44.980Z,28.93
2018-02-21T16:30:12.601Z,30.00
2018-02-21T16:32:40.147Z,29.50
2018-02-21T16:35:07.680Z,31.47
2018-02-21T16:37:35.592Z,28.80
2018-02-21T16:40:03.176Z,26.83
2018-02-21T16:42:30.835Z,27.47
2018-02-21T16:44:58.417Z,29.63
2018-02-21T16:47:26.040Z,27.80
2018-02-21T16:49:53.617Z,26.93
2018-02-21T16:52:21.357Z,27.47
2018-02-21T16:54:49.028Z,27.17
2018-02-21T16:57:16.648Z,28.20
2018-02-21T16:59:44.258Z,28.23
2018-02-21T17:02:11.900Z,29.27
2018-02-21T17:04:39.533Z,27.73
2018-02-21T17:07:07.139Z,28.33
2018-02-21T17:09:35.194Z,29.37
2018-02-21T17:12:02.770Z,28.27
2018-02-21T17:14:30.365Z,30.03
2018-02-21T17:16:58.060Z,30.13
2018-02-21T17:19:25.635Z,27.40
2018-02-21T17:21:53.196Z,28.23
2018-02-21T17:24:20.785Z,28.77
2018-02-21T17:26:48.327Z,29.17
2018-02-21T17:29:15.927Z,28.17
2018-02-21T17:31:43.491Z,26.90
2018-02-21T17:34:11.027Z,26.70
2018-02-21T17:36:39.335Z,26.67
2018-02-21T17:39:06.859Z,27.67
2018-02-21T17:41:34.431Z,27.10
2018-02-21T17:44:02.005Z,30.77
2018-02-21T17:46:29.565Z,28.57
2018-02-21T17:48:57.112Z,28.60
2018-02-21T17:51:24.687Z,29.97
2018-02-21T17:53:52.239Z,30.23
2018-02-21T17:56:19.793Z,27.53
2018-02-21T17:58:48.102Z,28.33
2018-02-21T18:01:15.622Z,27.80
2018-02-21T18:03:43.176Z,27.53
2018-02-21T18:06:10.735Z,26.93
2018-02-21T18:08:38.310Z,26.47
2018-02-21T18:11:05.870Z,25.20
2018-02-21T18:13:33.428Z,25.27
2018-02-21T18:16:00.989Z,27.37
2018-02-21T18:18:29.315Z,28.33
2018-02-21T18:20:56.873Z,26.40
2018-02-21T18:23:24.419Z,27.83
2018-02-21T18:25:53.076Z,26.10
2018-02-21T18:28:20.747Z,26.47
2018-02-21T18:30:48.321Z,25.00
2018-02-21T18:33:15.867Z,24.77
2018-02-21T18:35:43.458Z,24.77
2018-02-21T18:38:11.017Z,24.70
2018-02-21T18:40:38.598Z,25.27
2018-02-21T18:43:06.215Z,26.57
2018-02-21T18:45:34.539Z,24.03
2018-02-21T18:48:02.079Z,22.70
2018-02-21T18:50:29.609Z,21.60
2018-02-21T18:52:57.262Z,22.37
2018-02-21T18:55:24.815Z,24.67
2018-02-21T18:57:52.384Z,25.27
2018-02-21T19:00:20.669Z,22.57
2018-02-21T19:02:49.214Z,22.47
2018-02-21T19:05:16.817Z,22.97
2018-02-21T19:07:44.461Z,22.40
2018-02-21T19:10:12.053Z,22.80
2018-02-21T19:12:39.664Z,24.40
2018-02-21T19:15:07.232Z,22.63
2018-02-21T19:17:35.593Z,24.10
2018-02-21T19:20:03.165Z,25.33
2018-02-21T19:22:30.713Z,23.30
2018-02-21T19:24:58.255Z,23.07
2018-02-21T19:27:25.834Z,23.87
2018-02-21T19:29:53.413Z,22.47
2018-02-21T19:32:20.936Z,25.00
2018-02-21T19:34:48.480Z,24.30
2018-02-21T19:37:16.091Z,22.50
2018-02-21T19:39:43.600Z,22.83
2018-02-21T19:42:11.189Z,25.07
2018-02-21T19:44:38.748Z,25.60
2018-02-21T19:47:06.327Z,24.03
2018-02-21T19:49:33.955Z,26.33
2018-02-21T19:52:02.320Z,26.70
2018-02-21T19:54:30.479Z,24.27
2018-02-21T19:56:58.063Z,26.57
2018-02-21T19:59:25.632Z,23.80
2018-02-21T20:01:53.206Z,25.67
2018-02-21T20:04:20.756Z,24.10
2018-02-21T20:06:48.382Z,25.47
2018-02-21T20:09:15.924Z,22.00
2018-02-21T20:11:43.504Z,23.13
2018-02-21T20:14:11.069Z,22.73
2018-02-21T20:16:38.694Z,22.50
2018-02-21T20:19:07.008Z,22.03
2018-02-21T20:21:34.618Z,20.47
2018-02-21T20:24:02.224Z,23.03
2018-02-21T20:26:30.566Z,22.80
2018-02-21T20:28:58.140Z,21.53
2018-02-21T20:31:25.740Z,23.03
2018-02-21T20:33:53.328Z,23.07
2018-02-21T20:36:21.709Z,22.33
2018-02-21T20:38:50.077Z,23.20
2018-02-21T20:41:17.621Z,23.50
2018-02-21T20:43:45.228Z,23.57
2018-02-21T20:46:12.826Z,23.50
2018-02-21T20:48:41.196Z,24.10
2018-02-21T20:51:09.514Z,23.47
2018-02-21T20:53:37.868Z,23.97
2018-02-21T20:56:05.442Z,24.07
2018-02-21T20:58:34.497Z,24.93
2018-02-21T21:01:02.074Z,23.97
2018-02-21T21:03:29.609Z,23.27
2018-02-21T21:05:57.184Z,23.77
2018-02-21T21:08:25.549Z,24.77
2018-02-21T21:10:53.147Z,25.77
2018-02-21T21:13:21.600Z,25.40
2018-02-21T21:15:49.166Z,24.83
2018-02-21T21:18:16.747Z,25.63
2018-02-21T21:20:44.342Z,25.53
2018-02-21T21:23:11.883Z,25.37
2018-02-21T21:25:39.497Z,24.50
2018-02-21T21:28:07.106Z,24.83
2018-02-21T21:30:35.452Z,25.07
2018-02-21T21:33:03.014Z,23.70
2018-02-21T21:35:30.597Z,25.40
2018-02-21T21:37:58.304Z,25.50
2018-02-21T21:40:25.788Z,25.87
2018-02-21T21:42:53.964Z,25.27
2018-02-21T21:45:21.545Z,25.93
2018-02-21T21:47:49.205Z,26.00
2018-02-21T21:50:17.522Z,26.03
2018-02-21T21:52:45.100Z,24.13
2018-02-21T21:55:12.712Z,25.60
2018-02-21T21:57:40.278Z,25.50
2018-02-21T22:00:07.910Z,24.00
2018-02-21T22:02:35.522Z,26.77
2018-02-21T22:05:03.155Z,26.03
2018-02-21T22:07:30.791Z,25.53
2018-02-21T22:09:59.106Z,25.70
2018-02-21T22:12:26.658Z,26.93
2018-02-21T22:14:54.994Z,24.63
2018-02-21T22:17:22.588Z,25.57
2018-02-21T22:19:50.178Z,27.00
2018-02-21T22:22:17.768Z,25.93
2018-02-21T22:24:46.158Z,25.93
2018-02-21T22:27:14.512Z,26.77
2018-02-21T22:29:42.089Z,25.33
2018-02-21T22:32:09.658Z,25.47
2018-02-21T22:34:37.213Z,27.07
2018-02-21T22:37:04.797Z,27.40
2018-02-21T22:39:32.420Z,25.87
2018-02-21T22:41:59.996Z,26.57
2018-02-21T22:44:27.684Z,27.70
2018-02-21T22:46:55.256Z,28.43
2018-02-21T22:49:22.822Z,25.13
2018-02-21T22:51:50.401Z,26.90
2018-02-21T22:54:18.009Z,27.07
2018-02-21T22:56:45.599Z,27.10
2018-02-21T22:59:13.191Z,26.07
2018-02-21T23:01:41.570Z,26.90
2018-02-21T23:04:09.180Z,27.20
2018-02-21T23:06:36.720Z,26.37
2018-02-21T23:09:04.280Z,29.07
2018-02-21T23:11:31.874Z,27.17
2018-02-21T23:14:00.293Z,27.37
2018-02-21T23:16:27.924Z,27.00
2018-02-21T23:18:55.543Z,26.40
2018-02-21T23:21:23.130Z,27.17
2018-02-21T23:23:50.741Z,28.70
2018-02-21T23:26:18.350Z,29.50
2018-02-21T23:28:45.913Z,29.07
2018-02-21T23:31:14.290Z,28.17
2018-02-21T23:33:42.653Z,28.17
2018-02-21T23:36:10.180Z,26.23
2018-02-21T23:38:37.798Z,27.67
2018-02-21T23:41:05.416Z,26.83
2018-02-21T23:43:33.830Z,27.50
2018-02-21T23:46:01.432Z,26.57
2018-02-21T23:48:29.178Z,29.13
2018-02-21T23:50:56.860Z,27.73
2018-02-21T23:53:24.421Z,29.00
2018-02-21T23:55:52.065Z,27.63
2018-02-21T23:58:20.494Z,27.47
